Sheridan, WY

8:17 PM MDT on August 31, 2016 (GMT -0600)
South Sheridan | | Change Station

Elev 3770 ft 44.79 °N, 106.95 °W | Updated 51 seconds ago

Clear
Clear
83.8 °F
Feels Like 81 °F
N
7.2
Wind Variable Wind from South
Gusts 9.8 mph

Today
High -- | Low -- °F
--% Chance of Precip.
Yesterday
High -- | Low -- °F
Precip. -- in
Pressure 29.87 in
Visibility 10.0 miles
Clouds Clear
Heat Index 81 °F
Dew Point 42 °F
Humidity 23%
Rainfall 0.00 in
Snow Depth Not available.
6:29 AM 7:45 PM
Waning Crescent, 0% visible
METAR KSHR 010153Z AUTO 14018G25KT 10SM CLR 29/04 A2998 RMK AO2 PK WND 14029/0135 SLP115 T02890039
Pressure 29.87 in
Visibility 10.0 miles
Clouds Clear
Heat Index 81 °F
Dew Point 42 °F
Humidity 23%
Rainfall 0.00 in
Snow Depth Not available.
6:29 AM 7:45 PM
Waning Crescent, 0% visible
METAR KSHR 010153Z AUTO 14018G25KT 10SM CLR 29/04 A2998 RMK AO2 PK WND 14029/0135 SLP115 T02890039

10-Day Weather Forecast

Almanac

Astronomy

Aug. 31, 2016 Rise Set
Actual Time
Civil Twilight
Nautical Twilight
Astronomical Twilight
Moon
Length of Visible Light
Length of Day
Tomorrow will be .
, % of the Moon is Illuminated

Today's Extremes

State Highs State Lows

Community

WunderPhotos

Upload Photos

1,936,273 photos uploaded!

WunderBlog® & News

Nearby

Air Quality

  Air Quality AQ Index Pollutant
Not available.

Snow Depth

Station Depth Elevation

Earthquake Activity

City Distance Mag. Time & Date
Minimum magnitude displayed is 2.5.

Coastal Water Temperatures

Place Temperature

Stations

Nearby Weather Stations

Station Location Temp. Windchill Dew Point Humidity Wind Precip. Elev Updated Type
                   

Watches & Warnings

There are currently no watches in effect.